createdAt,value
2019-02-09T00:01:39.589Z,87.96
2019-02-09T00:04:30.022Z,88.56
2019-02-09T00:07:20.423Z,88.18
2019-02-09T00:10:11.039Z,88.77
2019-02-09T00:13:01.715Z,89.06
2019-02-09T00:15:52.167Z,89.25
2019-02-09T00:18:42.647Z,89.42
2019-02-09T00:21:33.029Z,89.49
2019-02-09T00:24:23.507Z,89.66
2019-02-09T00:27:14.031Z,89.89
2019-02-09T00:30:04.446Z,90.06
2019-02-09T00:32:54.860Z,90.03
2019-02-09T00:35:47.908Z,89.86
2019-02-09T00:38:38.336Z,89.47
2019-02-09T00:41:29.024Z,89.59
2019-02-09T00:44:19.291Z,89.31
2019-02-09T00:47:09.708Z,89.24
2019-02-09T00:50:00.328Z,89.20
2019-02-09T00:52:50.588Z,88.28
2019-02-09T00:55:41.035Z,88.54
2019-02-09T00:58:31.637Z,89.14
2019-02-09T01:01:25.024Z,89.60
2019-02-09T01:04:15.369Z,89.14
2019-02-09T01:07:05.783Z,89.02
2019-02-09T01:09:56.230Z,88.61
2019-02-09T01:12:46.439Z,87.95
2019-02-09T01:15:37.012Z,87.83
2019-02-09T01:18:28.474Z,87.91
2019-02-09T01:21:18.895Z,87.60
2019-02-09T01:24:09.189Z,88.00
2019-02-09T01:26:59.883Z,87.95
2019-02-09T01:29:50.144Z,87.35
2019-02-09T01:32:40.694Z,87.32
2019-02-09T01:35:31.267Z,87.68
2019-02-09T01:38:22.022Z,87.55
2019-02-09T01:41:12.543Z,87.11
2019-02-09T01:44:03.087Z,86.60
2019-02-09T01:46:53.446Z,87.03
2019-02-09T01:49:43.999Z,87.46
2019-02-09T01:52:34.200Z,87.49
2019-02-09T01:55:25.593Z,87.83
2019-02-09T01:58:16.188Z,87.47
2019-02-09T02:01:06.615Z,86.80
2019-02-09T02:03:56.984Z,87.30
2019-02-09T02:06:47.479Z,86.32
2019-02-09T02:09:37.838Z,86.04
2019-02-09T02:12:27.991Z,86.58
2019-02-09T02:15:18.802Z,87.21
2019-02-09T02:18:09.551Z,86.31
2019-02-09T02:20:59.733Z,86.25
2019-02-09T02:23:50.751Z,86.26
2019-02-09T02:26:41.205Z,86.05
2019-02-09T02:29:32.091Z,86.19
2019-02-09T02:32:22.494Z,86.02
2019-02-09T02:35:13.151Z,86.34
2019-02-09T02:38:03.588Z,86.72
2019-02-09T02:40:54.458Z,86.92
2019-02-09T02:43:44.860Z,86.53
2019-02-09T02:46:35.375Z,86.29
2019-02-09T02:49:25.588Z,86.32
2019-02-09T02:52:16.074Z,85.87
2019-02-09T02:55:06.534Z,85.67
2019-02-09T02:57:56.817Z,85.66
2019-02-09T03:00:47.317Z,85.70
2019-02-09T03:03:37.752Z,84.79
2019-02-09T03:06:28.081Z,84.87
2019-02-09T03:09:21.368Z,84.86
2019-02-09T03:12:11.667Z,85.16
2019-02-09T03:15:02.142Z,84.81
2019-02-09T03:17:52.331Z,84.81
2019-02-09T03:20:43.069Z,84.73
2019-02-09T03:23:33.512Z,84.31
2019-02-09T03:26:23.968Z,83.99
2019-02-09T03:29:14.229Z,84.44
2019-02-09T03:32:04.694Z,84.49
2019-02-09T03:34:56.208Z,83.81
2019-02-09T03:37:48.992Z,85.68
2019-02-09T03:40:39.488Z,85.92
2019-02-09T03:43:30.092Z,85.49
2019-02-09T03:46:20.472Z,85.64
2019-02-09T03:49:11.144Z,85.64
2019-02-09T03:52:01.647Z,86.20
2019-02-09T03:54:52.167Z,86.86
2019-02-09T03:57:42.547Z,87.26
2019-02-09T04:00:33.370Z,87.38
2019-02-09T04:03:23.770Z,88.12
2019-02-09T04:06:14.283Z,86.95
2019-02-09T04:09:05.648Z,87.17
2019-02-09T04:11:56.481Z,87.36
2019-02-09T04:14:46.947Z,87.43
2019-02-09T04:17:37.159Z,88.42
2019-02-09T04:20:27.671Z,89.21
2019-02-09T04:23:18.189Z,89.79
2019-02-09T04:26:08.661Z,90.14
2019-02-09T04:28:58.891Z,88.43
2019-02-09T04:31:49.235Z,88.24
2019-02-09T04:34:39.548Z,88.21
2019-02-09T04:37:30.020Z,88.55
2019-02-09T04:40:25.230Z,88.10
2019-02-09T04:43:15.441Z,88.51
2019-02-09T04:46:06.148Z,88.46
2019-02-09T04:48:56.406Z,86.81
2019-02-09T04:51:47.813Z,86.08
2019-02-09T04:54:38.218Z,86.15
2019-02-09T04:57:28.755Z,85.46
2019-02-09T05:00:21.275Z,86.31
2019-02-09T05:03:11.873Z,85.84
2019-02-09T05:06:02.304Z,86.36
2019-02-09T05:08:52.857Z,86.08
2019-02-09T05:11:44.374Z,85.89
2019-02-09T05:14:34.884Z,86.46
2019-02-09T05:17:25.246Z,86.38
2019-02-09T05:20:17.281Z,86.22
2019-02-09T05:23:07.432Z,86.11
2019-02-09T05:25:57.974Z,85.87
2019-02-09T05:28:48.332Z,85.82
2019-02-09T05:31:38.987Z,86.04
2019-02-09T05:34:29.396Z,86.12
2019-02-09T05:37:19.664Z,85.41
2019-02-09T05:40:11.285Z,85.32
2019-02-09T05:43:01.593Z,85.58
2019-02-09T05:45:52.114Z,84.55
2019-02-09T05:48:43.089Z,84.74
2019-02-09T05:51:33.544Z,84.45
2019-02-09T05:54:23.724Z,84.04
2019-02-09T05:57:14.213Z,84.12
2019-02-09T06:00:04.884Z,83.83
2019-02-09T06:02:55.137Z,83.28
2019-02-09T06:05:45.640Z,83.59
2019-02-09T06:08:36.087Z,82.06
2019-02-09T06:11:26.516Z,81.60
2019-02-09T06:14:16.647Z,81.43
2019-02-09T06:17:07.543Z,81.53
2019-02-09T06:19:58.190Z,80.84
2019-02-09T06:22:49.159Z,80.57
2019-02-09T06:25:39.703Z,80.15
2019-02-09T06:28:30.180Z,79.43
2019-02-09T06:31:20.356Z,79.12
2019-02-09T06:34:11.006Z,77.83
2019-02-09T06:37:01.433Z,77.23
2019-02-09T06:39:51.582Z,75.96
2019-02-09T06:42:42.011Z,73.28
2019-02-09T06:45:32.716Z,70.61
2019-02-09T06:48:28.428Z,72.70
2019-02-09T06:51:18.964Z,71.52
2019-02-09T06:54:09.417Z,69.81
2019-02-09T06:57:00.334Z,74.33
2019-02-09T06:59:50.784Z,74.75
2019-02-09T07:02:41.324Z,75.43
2019-02-09T07:05:31.910Z,76.59
2019-02-09T07:08:22.309Z,76.22
2019-02-09T07:11:12.870Z,74.93
2019-02-09T07:14:04.464Z,73.96
2019-02-09T07:16:54.617Z,71.93
2019-02-09T07:19:45.639Z,72.29
2019-02-09T07:22:36.056Z,73.02
2019-02-09T07:25:26.606Z,73.09
2019-02-09T07:28:16.812Z,71.83
2019-02-09T07:31:08.266Z,66.87
2019-02-09T07:33:58.596Z,60.80
2019-02-09T07:36:48.943Z,55.10
2019-02-09T07:39:39.586Z,50.83
2019-02-09T07:42:30.325Z,46.98
2019-02-09T07:45:22.658Z,43.98
2019-02-09T07:48:15.721Z,41.89
2019-02-09T07:51:06.343Z,42.68
2019-02-09T07:53:56.909Z,47.80
2019-02-09T07:56:47.447Z,51.84
2019-02-09T07:59:37.699Z,49.53
2019-02-09T08:02:28.078Z,51.43
2019-02-09T08:05:18.386Z,54.40
2019-02-09T08:08:08.889Z,58.64
2019-02-09T08:10:59.353Z,62.05
2019-02-09T08:13:49.808Z,62.13
2019-02-09T08:16:40.072Z,66.26
2019-02-09T08:19:30.638Z,65.68
2019-02-09T08:22:21.312Z,66.58
2019-02-09T08:25:14.063Z,65.71
2019-02-09T08:28:04.655Z,62.84
2019-02-09T08:30:56.343Z,62.84
2019-02-09T08:33:47.005Z,66.76
2019-02-09T08:36:37.459Z,68.16
2019-02-09T08:39:27.729Z,68.41
2019-02-09T08:42:17.838Z,69.95
2019-02-09T08:45:11.844Z,70.53
2019-02-09T08:48:02.218Z,70.93
2019-02-09T08:50:59.491Z,71.22
2019-02-09T08:53:49.817Z,72.35
2019-02-09T08:56:40.408Z,71.35
2019-02-09T08:59:30.827Z,73.30
2019-02-09T09:02:21.279Z,70.60
2019-02-09T09:05:12.117Z,68.69
2019-02-09T09:08:02.727Z,69.50
2019-02-09T09:10:53.190Z,68.29
2019-02-09T09:13:43.784Z,68.56
2019-02-09T09:16:34.176Z,66.03
2019-02-09T09:19:24.763Z,66.68
2019-02-09T09:22:15.471Z,69.74
2019-02-09T09:25:07.140Z,70.34
2019-02-09T09:27:57.654Z,70.27
2019-02-09T09:30:47.849Z,71.23
2019-02-09T09:33:38.207Z,70.10
2019-02-09T09:36:28.672Z,68.87
2019-02-09T09:39:19.181Z,70.96
2019-02-09T09:42:09.876Z,68.32
2019-02-09T09:45:00.257Z,66.98
2019-02-09T09:47:50.995Z,66.54
2019-02-09T09:50:41.554Z,69.60
2019-02-09T09:53:31.952Z,69.00
2019-02-09T09:56:22.243Z,69.17
2019-02-09T09:59:13.204Z,68.16
2019-02-09T10:02:03.745Z,69.60
2019-02-09T10:04:53.941Z,69.42
2019-02-09T10:07:44.396Z,68.84
2019-02-09T10:10:35.005Z,69.89
2019-02-09T10:13:25.493Z,71.00
2019-02-09T10:16:16.319Z,71.45
2019-02-09T10:19:06.671Z,71.94
2019-02-09T10:21:56.952Z,72.03
2019-02-09T10:24:47.402Z,70.68
2019-02-09T10:27:37.676Z,71.99
2019-02-09T10:30:31.895Z,72.96
2019-02-09T10:33:22.488Z,73.99
2019-02-09T10:36:13.007Z,73.66
2019-02-09T10:39:04.245Z,74.29
2019-02-09T10:41:54.745Z,74.18
2019-02-09T10:44:45.627Z,72.49
2019-02-09T10:47:36.290Z,73.53
2019-02-09T10:50:28.912Z,75.15
2019-02-09T10:53:19.135Z,73.75
2019-02-09T10:56:09.692Z,73.39
2019-02-09T10:58:59.877Z,73.82
2019-02-09T11:01:50.513Z,74.28
2019-02-09T11:04:40.910Z,72.93
2019-02-09T11:07:31.505Z,72.94
2019-02-09T11:10:22.029Z,74.49
2019-02-09T11:13:12.615Z,73.73
2019-02-09T11:16:03.194Z,72.56
2019-02-09T11:18:53.816Z,72.27
2019-02-09T11:21:44.295Z,71.85
2019-02-09T11:24:34.940Z,71.86
2019-02-09T11:27:26.276Z,70.80
2019-02-09T11:30:20.010Z,71.97
2019-02-09T11:33:10.244Z,71.08
2019-02-09T11:36:00.870Z,69.67
2019-02-09T11:38:51.299Z,69.40
2019-02-09T11:41:41.493Z,68.78
2019-02-09T11:44:31.879Z,68.39
2019-02-09T11:47:22.717Z,67.59
2019-02-09T11:50:13.381Z,66.23
2019-02-09T11:53:03.888Z,65.05
2019-02-09T11:55:54.100Z,67.50
2019-02-09T11:58:44.508Z,67.71
2019-02-09T12:01:36.130Z,66.65
2019-02-09T12:04:27.139Z,67.70
2019-02-09T12:07:17.481Z,68.20
2019-02-09T12:10:08.790Z,67.50
2019-02-09T12:12:59.185Z,68.94
2019-02-09T12:15:49.939Z,69.75
2019-02-09T12:18:40.475Z,69.80
2019-02-09T12:21:30.774Z,71.03
2019-02-09T12:24:20.978Z,69.19
2019-02-09T12:27:11.555Z,69.77
2019-02-09T12:30:02.139Z,71.82
2019-02-09T12:32:54.009Z,72.30
2019-02-09T12:35:44.613Z,72.76
2019-02-09T12:38:35.305Z,72.67
2019-02-09T12:41:28.513Z,72.07
2019-02-09T12:44:19.038Z,72.17
2019-02-09T12:47:09.533Z,72.61
2019-02-09T12:49:59.996Z,73.58
2019-02-09T12:52:50.349Z,72.14
2019-02-09T12:55:41.836Z,72.71
2019-02-09T12:58:32.500Z,72.50
2019-02-09T13:01:23.007Z,71.44
2019-02-09T13:04:13.465Z,72.96
2019-02-09T13:07:04.177Z,71.64
2019-02-09T13:09:54.539Z,73.01
2019-02-09T13:12:45.031Z,71.24
2019-02-09T13:15:35.414Z,71.80
2019-02-09T13:18:26.167Z,70.65
2019-02-09T13:21:19.903Z,71.07
2019-02-09T13:24:10.601Z,71.82
2019-02-09T13:27:01.220Z,71.96
2019-02-09T13:29:51.881Z,71.56
2019-02-09T13:32:42.112Z,72.18
2019-02-09T13:35:32.524Z,71.97
2019-02-09T13:38:22.939Z,72.65
2019-02-09T13:41:13.300Z,73.48
2019-02-09T13:44:03.762Z,72.53
2019-02-09T13:46:54.419Z,71.93
2019-02-09T13:49:44.907Z,72.53
2019-02-09T13:52:35.177Z,71.22
2019-02-09T13:55:25.776Z,72.70
2019-02-09T13:58:16.513Z,71.66
2019-02-09T14:01:07.146Z,71.87
2019-02-09T14:03:57.346Z,72.34
2019-02-09T14:06:49.758Z,73.18
2019-02-09T14:09:40.441Z,72.84
2019-02-09T14:12:30.891Z,72.77
2019-02-09T14:15:23.234Z,71.77
2019-02-09T14:18:13.504Z,71.52
2019-02-09T14:21:03.676Z,70.57
2019-02-09T14:23:54.192Z,68.11
2019-02-09T14:26:44.666Z,68.55
2019-02-09T14:29:35.169Z,68.96
2019-02-09T14:32:25.832Z,69.28
2019-02-09T14:35:16.405Z,67.79
2019-02-09T14:38:07.253Z,69.87
2019-02-09T14:40:57.688Z,70.82
2019-02-09T14:43:48.142Z,70.93
2019-02-09T14:46:39.932Z,72.52
2019-02-09T14:49:30.301Z,71.67
2019-02-09T14:52:20.620Z,72.58
2019-02-09T14:55:13.439Z,72.46
2019-02-09T14:58:03.635Z,70.97
2019-02-09T15:00:54.637Z,71.64
2019-02-09T15:03:44.837Z,71.40
2019-02-09T15:06:35.117Z,70.50
2019-02-09T15:09:25.585Z,70.95
2019-02-09T15:12:15.975Z,72.01
2019-02-09T15:15:10.151Z,71.66
2019-02-09T15:18:01.060Z,72.80
2019-02-09T15:20:54.833Z,72.78
2019-02-09T15:23:45.378Z,73.33
2019-02-09T15:26:35.768Z,73.08
2019-02-09T15:29:26.169Z,73.58
2019-02-09T15:32:16.852Z,73.56
2019-02-09T15:35:09.156Z,73.64
2019-02-09T15:37:59.857Z,73.83
2019-02-09T15:40:50.396Z,74.11
2019-02-09T15:43:40.858Z,73.78
2019-02-09T15:46:31.353Z,74.80
2019-02-09T15:49:21.814Z,75.71
2019-02-09T15:52:12.059Z,75.93
2019-02-09T15:55:02.572Z,76.95
2019-02-09T15:57:52.759Z,77.30
2019-02-09T16:00:43.147Z,77.37
2019-02-09T16:03:33.599Z,78.16
2019-02-09T16:06:24.159Z,78.24
2019-02-09T16:09:14.591Z,77.88
2019-02-09T16:12:05.033Z,78.98
2019-02-09T16:14:55.801Z,79.91
2019-02-09T16:17:45.832Z,80.86
2019-02-09T16:20:36.327Z,81.50
2019-02-09T16:23:26.885Z,82.40
2019-02-09T16:26:17.516Z,83.30
2019-02-09T16:29:07.905Z,84.06
2019-02-09T16:31:58.802Z,85.24
2019-02-09T16:34:49.324Z,85.53
2019-02-09T16:37:40.292Z,85.90
2019-02-09T16:40:30.790Z,86.59
2019-02-09T16:43:21.602Z,87.02
2019-02-09T16:46:12.096Z,87.42
2019-02-09T16:49:02.769Z,87.49
2019-02-09T16:51:53.047Z,88.09
2019-02-09T16:54:43.276Z,88.66
2019-02-09T16:57:33.381Z,88.19
2019-02-09T17:00:29.430Z,88.07
2019-02-09T17:03:19.860Z,88.16
2019-02-09T17:06:13.179Z,88.21
2019-02-09T17:09:04.040Z,88.05
2019-02-09T17:11:55.370Z,88.29
2019-02-09T17:14:45.747Z,88.38
2019-02-09T17:17:36.023Z,88.35
2019-02-09T17:20:26.466Z,88.12
2019-02-09T17:23:16.931Z,88.26
2019-02-09T17:26:07.398Z,87.99
2019-02-09T17:28:58.235Z,88.03
2019-02-09T17:31:48.834Z,88.33
2019-02-09T17:34:41.199Z,88.57
2019-02-09T17:37:31.572Z,88.50
2019-02-09T17:40:27.430Z,88.95
2019-02-09T17:43:18.073Z,89.04
2019-02-09T17:46:11.923Z,88.97
2019-02-09T17:49:02.140Z,88.98
2019-02-09T17:51:52.756Z,89.02
2019-02-09T17:54:43.092Z,89.86
2019-02-09T17:57:33.445Z,89.75
2019-02-09T18:00:49.004Z,89.71
2019-02-09T18:03:39.363Z,89.74
2019-02-09T18:06:29.577Z,89.66
2019-02-09T18:09:20.236Z,89.98
2019-02-09T18:12:10.882Z,89.86
2019-02-09T18:15:01.305Z,89.55
2019-02-09T18:17:52.004Z,89.51
2019-02-09T18:20:42.693Z,89.49
2019-02-09T18:23:32.998Z,89.56
2019-02-09T18:26:23.205Z,89.95
2019-02-09T18:29:13.733Z,89.83
2019-02-09T18:32:04.687Z,89.96
2019-02-09T18:34:56.265Z,90.25
2019-02-09T18:37:46.952Z,90.13
2019-02-09T18:40:37.357Z,90.17
2019-02-09T18:43:28.321Z,90.33
2019-02-09T18:46:18.825Z,90.07
2019-02-09T18:49:09.395Z,90.57
2019-02-09T18:51:59.863Z,90.89
2019-02-09T18:54:50.603Z,90.67
2019-02-09T18:57:41.073Z,90.27
2019-02-09T19:00:32.578Z,90.10
2019-02-09T19:03:22.820Z,89.96
2019-02-09T19:06:13.416Z,90.32
2019-02-09T19:09:04.883Z,90.12
2019-02-09T19:11:56.692Z,89.85
2019-02-09T19:14:47.016Z,90.53
2019-02-09T19:17:37.373Z,90.72
2019-02-09T19:20:30.443Z,91.16
2019-02-09T19:23:20.796Z,90.84
2019-02-09T19:26:11.260Z,90.99
2019-02-09T19:29:01.982Z,90.88
2019-02-09T19:31:52.453Z,90.71
2019-02-09T19:34:42.958Z,91.26
2019-02-09T19:37:33.501Z,91.22
2019-02-09T19:40:23.972Z,91.66
2019-02-09T19:43:14.361Z,91.19
2019-02-09T19:46:04.693Z,90.64
2019-02-09T19:48:55.128Z,90.74
2019-02-09T19:51:45.971Z,91.07
2019-02-09T19:54:36.169Z,91.20
2019-02-09T19:57:26.795Z,90.87
2019-02-09T20:00:20.299Z,91.14
2019-02-09T20:03:10.808Z,90.67
2019-02-09T20:06:00.907Z,91.08
2019-02-09T20:08:51.530Z,91.16
2019-02-09T20:11:42.162Z,91.06
2019-02-09T20:14:32.643Z,91.35
2019-02-09T20:17:22.853Z,91.63
2019-02-09T20:20:14.032Z,91.30
2019-02-09T20:23:04.417Z,91.09
2019-02-09T20:25:54.907Z,91.43
2019-02-09T20:28:45.015Z,91.05
2019-02-09T20:31:35.617Z,91.13
2019-02-09T20:34:25.998Z,91.19
2019-02-09T20:37:16.188Z,91.20
2019-02-09T20:40:08.700Z,91.42
2019-02-09T20:43:02.214Z,91.28
2019-02-09T20:45:51.697Z,91.04
2019-02-09T20:48:42.165Z,90.98
2019-02-09T20:51:32.589Z,90.72
2019-02-09T20:54:23.097Z,91.14
2019-02-09T20:57:13.298Z,90.61
2019-02-09T21:00:09.961Z,90.46
2019-02-09T21:03:00.271Z,90.69
2019-02-09T21:05:51.020Z,90.44
2019-02-09T21:08:41.674Z,90.02
2019-02-09T21:11:31.917Z,89.69
2019-02-09T21:14:22.340Z,89.85
2019-02-09T21:17:12.948Z,89.40
2019-02-09T21:20:03.667Z,89.75
2019-02-09T21:22:54.203Z,89.45
2019-02-09T21:25:45.452Z,89.49
2019-02-09T21:28:37.024Z,89.38
2019-02-09T21:31:27.409Z,90.07
2019-02-09T21:34:17.725Z,89.91
2019-02-09T21:37:07.987Z,90.05
2019-02-09T21:39:58.342Z,89.72
2019-02-09T21:42:48.955Z,89.56
2019-02-09T21:45:44.792Z,89.51
2019-02-09T21:48:31.317Z,89.52
2019-02-09T21:51:21.709Z,89.51
2019-02-09T21:54:12.164Z,90.11
2019-02-09T21:57:02.653Z,90.02
2019-02-09T21:59:52.849Z,89.75
2019-02-09T22:02:43.099Z,89.94
2019-02-09T22:05:33.485Z,89.96
2019-02-09T22:08:24.234Z,90.00
2019-02-09T22:11:14.728Z,89.54
2019-02-09T22:14:05.561Z,88.96
2019-02-09T22:16:56.104Z,89.45
2019-02-09T22:19:46.518Z,89.76
2019-02-09T22:22:36.923Z,90.39
2019-02-09T22:25:30.074Z,90.54
2019-02-09T22:28:20.192Z,90.44
2019-02-09T22:31:10.665Z,90.33
2019-02-09T22:34:00.997Z,90.34
2019-02-09T22:36:51.779Z,90.18
2019-02-09T22:39:41.946Z,90.36
2019-02-09T22:42:32.142Z,89.84
2019-02-09T22:45:22.588Z,89.92
2019-02-09T22:48:12.973Z,89.75
2019-02-09T22:51:03.604Z,89.65
2019-02-09T22:53:53.995Z,90.48
2019-02-09T22:56:44.457Z,90.96
2019-02-09T22:59:34.920Z,90.67
2019-02-09T23:02:25.270Z,90.47
2019-02-09T23:05:57.989Z,90.44
2019-02-09T23:08:48.183Z,90.22
2019-02-09T23:11:38.472Z,90.70
2019-02-09T23:14:29.034Z,90.86
2019-02-09T23:17:19.682Z,90.87
2019-02-09T23:20:11.229Z,90.98
2019-02-09T23:23:01.372Z,91.33
2019-02-09T23:25:51.621Z,91.42
2019-02-09T23:28:43.769Z,91.29
2019-02-09T23:31:33.971Z,91.67
2019-02-09T23:34:24.328Z,91.70
2019-02-09T23:37:14.758Z,91.72
2019-02-09T23:40:04.973Z,91.34
2019-02-09T23:42:55.398Z,90.95
2019-02-09T23:45:46.065Z,91.20
2019-02-09T23:48:36.296Z,91.37
2019-02-09T23:51:27.158Z,91.13
2019-02-09T23:54:17.284Z,90.94
2019-02-09T23:57:07.700Z,90.58
2019-02-09T23:59:58.213Z,90.77
